Stunt Ranch Reserve, Santa Monica Mtns, California Weather observations

Data are for 10 minute period ending at time listed.
 Day   Time   Solar   Ave.   Ave.  Ave.  Vector  Max.   Baro.   Total    
  of    of     Rad.   Air    Rel.  Wind   Wind   Wind  Press.  Precip.   
Year   Day            Temp.  Hum.  Speed  Dir.   Gust                    
2017   (PST)  Kw/m2    F      %     mph   deg.    mph    mb.     in.     
-------------------------------------------------------------------------
  84   14:10   0.81   67.5    61    2.9   304     9.8   970.2    0.00 
  84   14:20   0.73   69.0    60    2.3   329     9.0   970.2    0.00 
  84   14:30   0.71   67.4    61    3.6   351    10.8   969.9    0.00 
  84   14:40   0.61   63.1    70    6.6   169    13.4   969.9    0.00 
  84   14:50   0.63   61.6    71    6.0   160    13.7   969.9    0.00 
  84   15:00   0.58   62.7    69    3.7   201     9.0   969.9    0.00 
  84   15:10   0.56   64.2    65    2.8   221     6.2   969.9    0.00 
  84   15:20   0.53   65.4    64    1.2   344     6.1   969.9    0.00 
  84   15:30   0.49   66.1    62    2.2   303     6.1   969.9    0.00 
  84   15:40   0.33   66.4    61    3.2   303     8.2   969.9    0.00 
  84   15:50   0.43   65.4    62    3.7   289    10.9   969.5    0.00 
  84   16:00   0.40   66.0    61    3.0   282     6.9   969.5    0.00 
  84   16:10   0.36   66.1    61    3.7   290     9.6   969.5    0.00 
  84   16:20   0.33   65.2    62    3.5   280     9.6   969.5    0.00 
  84   16:30   0.30   64.6    62    4.6   278     9.0   969.5    0.00 
  84   16:40   0.26   64.1    63    2.1   299     6.4   969.5    0.00 
  84   16:50   0.22   63.5    64    2.7   276     8.6   969.9    0.00 
  84   17:00   0.18   62.7    65    2.8   286     8.4   969.9    0.00 
  84   17:10   0.14   62.6    64    3.2   307     7.7   969.9    0.00 
  84   17:20   0.11   61.4    64    1.3   313     7.5   969.9    0.00 
  84   17:30   0.09   59.9    66    1.3   308     8.5   969.9    0.00 
  84   17:40   0.07   58.2    69    1.8   287     6.0   969.9    0.00 
  84   17:50   0.04   57.2    72    1.3   293     5.2   970.2    0.00 
  84   18:00   0.02   56.4    73    1.0   280     5.3   970.2    0.00 
  84   18:10   0.01   55.8    75    0.8   271     3.4   970.2    0.00 
  84   18:20   0.00   55.1    76    2.5   248     5.2   970.2    0.00 
  84   18:30   0.00   54.6    76    2.3   244     4.8   970.2    0.00 
  84   18:40   0.00   54.4    76    2.7   233     4.3   970.2    0.00 
  84   18:50   0.00   54.0    76    2.8   233     3.9   970.2    0.00 
  84   19:00   0.00   53.7    76    3.0   241     4.5   970.5    0.00 
  84   19:10   0.00   53.4    76    3.7   216     5.1   970.5    0.00 
  84   19:20   0.00   53.1    76    3.0   220     4.7   970.5    0.00 
  84   19:30   0.00   52.9    76    2.8   221     4.3   970.5    0.00 
  84   19:40   0.00   52.9    76    3.0   217     5.9   970.5    0.00 
  84   19:50   0.00   52.6    77    3.1   208     5.6   970.9    0.00 
  84   20:00   0.00   52.6    76    3.9   193     4.8   970.9    0.00 
  84   20:10   0.00   52.2    77    3.5   186     4.7   970.9    0.00 
  84   20:20   0.00   52.0    77    2.9   164     3.9   970.9    0.00 
  84   20:30   0.00   52.2    76    3.6   182     4.9   970.9    0.00 
  84   20:40   0.00   52.4    74    2.9   199     5.5   970.9    0.00 
  84   20:50   0.00   52.2    73    1.7   221     3.6   970.9    0.00 
  84   21:00   0.00   52.0    72    2.4   201     4.7   970.9    0.00 
  84   21:10   0.00   52.0    71    1.9   207     3.8   970.9    0.00 
  84   21:20   0.00   52.0    70    1.9   192     3.5   970.9    0.00 
  84   21:30   0.00   52.4    70    2.1   208     3.4   970.9    0.00 
  84   21:40   0.00   52.1    73    1.4   207     2.5   970.5    0.00 
  84   21:50   0.00   52.1    75    1.9   167     3.0   970.5    0.00 
  84   22:00   0.00   52.3    76    1.2   175     3.0   970.5    0.00 
  84   22:10   0.00   52.2    76    0.5   285     1.5   970.5    0.00 
  84   22:20   0.00   51.6    77    0.7   287     2.0   970.5    0.00 
  84   22:30   0.00   52.1    75    0.6   137     1.9   970.5    0.00 
  84   22:40   0.00   51.9    75    0.4    52     2.0   970.5    0.00 
  84   22:50   0.00   51.3    77    1.4   250     2.3   970.2    0.00 
  84   23:00   0.00   51.9    74    0.7   251     1.6   970.2    0.00 
  84   23:10   0.00   52.1    74    0.5   201     1.8   970.2    0.00 
  84   23:20   0.00   51.9    74    0.6   180     2.3   970.2    0.00 
  84   23:30   0.00   51.8    73    1.4   136     2.4   969.9    0.00 
  84   23:40   0.00   51.6    73    0.7   111     1.8   969.9    0.00 
  84   23:50   0.00   51.2    74    0.9   124     2.6   969.9    0.00 
  85    0:00   0.00   50.8    75    3.0   147     5.6   969.9    0.00 
  85    0:10   0.00   50.8    75    1.2   139     3.0   969.9    0.00 
  85    0:20   0.00   50.4    76    2.7   274     4.0   969.9    0.00 
  85    0:30   0.00   49.6    79    1.7   250     3.1   969.9    0.00 
  85    0:40   0.00   49.4    79    1.6   102     4.0   969.9    0.00 
  85    0:50   0.00   49.5    79    2.7   144     4.0   969.9    0.00 
  85    1:00   0.00   50.1    77    1.6   149     3.3   969.5    0.00 
  85    1:10   0.00   50.3    77    1.5   149     3.6   969.5    0.00 
  85    1:20   0.00   50.4    76    1.3   147     2.8   969.5    0.00 
  85    1:30   0.00   50.9    74    1.0   146     2.1   969.5    0.00 
  85    1:40   0.00   51.0    74    0.5   281     2.3   969.2    0.00 
  85    1:50   0.00   50.7    74    1.1   271     2.3   969.2    0.00 
  85    2:00   0.00   50.4    75    1.0   279     2.1   969.2    0.00 
  85    2:10   0.00   49.5    77    1.2   126     2.2   969.2    0.00 
  85    2:20   0.00   49.4    77    1.3   186     3.1   969.2    0.00 
  85    2:30   0.00   48.5    80    1.1   294     3.1   969.2    0.00 
  85    2:40   0.00   48.3    82    0.4   235     1.0   969.2    0.00 
  85    2:50   0.00   48.5    80    2.8   125     4.4   969.2    0.00 
  85    3:00   0.00   49.1    78    2.4   130     3.6   969.2    0.00 
  85    3:10   0.00   49.0    78    1.3   150     2.9   969.2    0.00 
  85    3:20   0.00   49.1    77    0.5   236     1.5   969.2    0.00 
  85    3:30   0.00   49.1    78    0.0     0     0.0   969.2    0.00 
  85    3:40   0.00   49.1    78    0.0     0     0.0   969.2    0.00 
  85    3:50   0.00   48.8    80    0.2   220     0.8   969.2    0.00 
  85    4:00   0.00   48.4    82    0.1   236     0.8   969.2    0.00 
  85    4:10   0.00   48.4    82    0.2   271     1.2   969.2    0.00 
  85    4:20   0.00   48.3    82    0.1   267     1.0   969.2    0.00 
  85    4:30   0.00   48.5    81    1.4   184     2.3   969.2    0.00 
  85    4:40   0.00   48.5    81    0.4   256     2.0   969.2    0.00 
  85    4:50   0.00   48.0    83    0.1   280     1.2   969.5    0.00 
  85    5:00   0.00   48.0    83    0.1    12     0.9   969.5    0.00 
  85    5:10   0.00   48.0    83    1.5   146     3.0   969.5    0.00 
  85    5:20   0.00   48.0    82    1.5   164     2.4   969.5    0.00 
  85    5:30   0.00   48.3    81    0.7    60     1.8   969.5    0.00 
  85    5:40   0.00   48.2    82    1.0   113     2.4   969.5    0.00 
  85    5:50   0.00   47.8    83    0.2   255     0.9   969.5    0.00 
  85    6:00   0.01   47.2    84    0.5    10     1.5   969.9    0.00 
  85    6:10   0.01   46.7    86    1.2   144     2.3   969.5    0.00 
  85    6:20   0.01   46.9    86    2.4   250     4.1   969.9    0.00 
  85    6:30   0.03   46.6    87    1.4   239     3.0   969.9    0.00 
  85    6:40   0.03   46.9    86    0.5   339     1.1   969.9    0.00 
  85    6:50   0.14   49.0    85    0.1   294     0.7   969.9    0.00 
  85    7:00   0.17   53.4    72    0.9   293     2.0   969.9    0.00 
  85    7:10   0.16   54.3    68    1.1   283     2.2   970.2    0.00 
  85    7:20   0.23   54.2    70    0.5     4     1.6   970.2    0.00 
  85    7:30   0.27   54.0    71    0.6    29     1.8   970.2    0.00 
  85    7:40   0.30   55.2    69    0.7   308     1.9   970.5    0.00 
  85    7:50   0.34   57.1    66    1.4   294     3.2   970.9    0.00 
  85    8:00   0.37   58.5    63    3.3   283     4.7   971.2    0.00 
  85    8:10   0.41   58.7    64    1.5   285     3.4   971.2    0.00 
  85    8:20   0.44   58.4    65    1.0   302     2.3   971.2    0.00 
  85    8:30   0.47   58.2    67    1.5    26     3.8   971.2    0.00 
  85    8:40   0.51   59.9    63    3.4   283     5.7   971.2    0.00 
  85    8:50   0.35   60.7    62    3.8   278     5.8   971.6    0.00 
  85    9:00   0.39   60.3    64    2.4   280     4.4   971.6    0.00 
  85    9:10   0.56   61.5    61    1.4   291     3.2   971.6    0.00 
  85    9:20   0.63   63.2    58    2.2   280     4.9   971.6    0.00 
  85    9:30   0.64   64.7    57    2.7   289     5.4   971.6    0.00 
  85    9:40   0.66   64.4    56    2.1   274     4.5   971.6    0.00 
  85    9:50   0.61   64.3    57    1.9   265     5.0   971.6    0.00 
  85   10:00   0.83   66.1    56    2.0   347     4.7   971.6    0.00 
  85   10:10   0.41   66.9    55    2.9   288     7.5   971.6    0.00 
  85   10:20   0.49   65.1    57    1.5   302     5.4   971.6    0.00 
  85   10:30   0.79   67.2    53    3.1   283     7.6   971.2    0.00 
  85   10:40   0.55   66.8    54    3.1   271     7.9   971.6    0.00 
  85   10:50   0.88   65.8    57    2.2   217     6.3   971.6    0.00 
  85   11:00   0.88   66.7    56    2.2   260     6.1   971.6    0.00 
  85   11:10   0.83   67.7    56    2.2   126     7.4   971.2    0.00 
  85   11:20   0.34   63.3    62    2.8   151     8.0   971.2    0.00 
  85   11:30   0.41   62.0    64    2.3    16     6.1   971.2    0.00 
  85   11:40   0.61   65.3    58    1.5   301     6.0   971.2    0.00 
  85   11:50   0.89   68.2    54    1.4   286     5.6   971.2    0.00 
  85   12:00   0.87   69.7    51    1.7   291     6.2   971.2    0.00 
  85   12:10   0.88   69.3    52    1.6   268     8.8   971.2    0.00 
  85   12:20   0.77   68.0    54    5.3   259    14.5   971.2    0.00 
  85   12:30   0.75   66.2    57    2.9   292     9.6   970.9    0.00 
  85   12:40   0.78   68.2    54    2.5   296    10.1   970.9    0.00 
  85   12:50   0.78   69.4    52    1.7   345     6.0   970.9    0.00 
  85   13:00   0.40   68.2    54    1.0   330     6.5   970.9    0.00 
  85   13:10   0.57   65.0    59    2.8   268    11.2   970.9    0.00 
  85   13:20   0.79   65.4    59    3.0   245     8.1   970.5    0.00 
  85   13:30   0.85   67.2    58    1.9   274     6.6   970.5    0.00 
  85   13:40   0.73   68.5    56    2.9   294     7.6   970.5    0.00 
  85   13:50   0.80   68.2    56    4.1   299    11.9   970.5    0.00 
  85   14:00   0.50   67.2    57    2.6   335     7.4   970.2    0.00 

Return to Stunt Ranch Reserve graphs page.


Western Regional Climate Center,wrcc@dri.edu